createdAt,value
2022-12-17T00:01:34.134Z,90.04
2022-12-17T00:04:19.083Z,90.16
2022-12-17T00:07:03.944Z,90.83
2022-12-17T00:09:50.508Z,91.01
2022-12-17T00:12:35.754Z,91.54
2022-12-17T00:15:20.625Z,91.95
2022-12-17T00:18:05.449Z,91.97
2022-12-17T00:20:50.427Z,92.40
2022-12-17T00:23:35.858Z,92.11
2022-12-17T00:26:20.964Z,91.94
2022-12-17T00:29:05.905Z,92.61
2022-12-17T00:34:41.255Z,92.44
2022-12-17T00:37:26.506Z,91.81
2022-12-17T00:40:11.547Z,91.92
2022-12-17T00:42:56.615Z,92.40
2022-12-17T00:48:35.268Z,92.75
2022-12-17T00:51:20.359Z,93.05
2022-12-17T00:54:05.606Z,92.72
2022-12-17T00:56:50.482Z,93.12
2022-12-17T01:02:26.134Z,93.49
2022-12-17T01:05:11.382Z,93.74
2022-12-17T01:07:56.486Z,93.75
2022-12-17T01:10:41.263Z,93.17
2022-12-17T01:13:26.698Z,93.02
2022-12-17T01:16:11.800Z,93.07
2022-12-17T01:18:57.201Z,92.83
2022-12-17T01:21:42.166Z,93.24
2022-12-17T01:24:27.030Z,92.92
2022-12-17T01:27:11.914Z,93.14
2022-12-17T01:29:56.681Z,93.30
2022-12-17T01:32:41.804Z,92.96
2022-12-17T01:35:26.601Z,93.03
2022-12-17T01:38:11.570Z,92.24
2022-12-17T01:40:56.582Z,93.05
2022-12-17T01:43:41.467Z,92.69
2022-12-17T01:46:28.019Z,92.73
2022-12-17T01:49:12.874Z,93.26
2022-12-17T01:51:58.121Z,93.75
2022-12-17T01:54:43.031Z,93.06
2022-12-17T01:57:31.025Z,93.60
2022-12-17T02:00:15.972Z,93.50
2022-12-17T02:03:01.216Z,93.69
2022-12-17T02:05:46.565Z,93.05
2022-12-17T02:11:21.927Z,93.56
2022-12-17T02:14:11.016Z,94.08
2022-12-17T02:16:55.948Z,94.35
2022-12-17T02:22:31.710Z,94.76
2022-12-17T02:25:16.720Z,94.85
2022-12-17T02:28:01.545Z,94.38
2022-12-17T02:30:46.518Z,94.82
2022-12-17T02:33:31.579Z,94.54
2022-12-17T02:36:16.899Z,94.80
2022-12-17T02:39:05.269Z,95.33
2022-12-17T02:41:50.165Z,95.16
2022-12-17T02:47:25.989Z,95.01
2022-12-17T02:50:10.858Z,94.82
2022-12-17T02:52:55.755Z,94.69
2022-12-17T02:55:40.735Z,95.17
2022-12-17T03:01:19.242Z,94.59
2022-12-17T03:04:04.417Z,94.56
2022-12-17T03:06:49.573Z,93.89
2022-12-17T03:09:34.487Z,94.10
2022-12-17T03:15:09.827Z,93.73
2022-12-17T03:17:54.796Z,94.47
2022-12-17T03:20:39.864Z,94.68
2022-12-17T03:23:24.711Z,95.17
2022-12-17T03:26:09.657Z,95.04
2022-12-17T03:28:54.363Z,94.67
2022-12-17T03:31:39.686Z,94.13
2022-12-17T03:34:24.887Z,93.40
2022-12-17T03:37:09.799Z,92.84
2022-12-17T03:39:55.026Z,94.17
2022-12-17T03:45:30.205Z,94.97
2022-12-17T03:48:15.156Z,94.43
2022-12-17T03:51:01.972Z,94.90
2022-12-17T03:53:46.854Z,95.00
2022-12-17T03:56:35.221Z,94.46
2022-12-17T03:59:20.183Z,93.66
2022-12-17T04:02:05.559Z,93.95
2022-12-17T04:04:50.616Z,93.70
2022-12-17T04:07:35.726Z,93.33
2022-12-17T04:10:20.729Z,93.44
2022-12-17T04:13:05.957Z,92.95
2022-12-17T04:15:50.902Z,92.85
2022-12-17T04:18:36.183Z,93.84
2022-12-17T04:21:21.158Z,93.23
2022-12-17T04:24:08.134Z,93.84
2022-12-17T04:26:53.034Z,94.56
2022-12-17T04:32:35.172Z,94.61
2022-12-17T04:41:00.766Z,93.57
2022-12-17T04:43:45.987Z,93.66
2022-12-17T04:46:30.910Z,94.21
2022-12-17T04:52:06.715Z,94.77
2022-12-17T04:57:41.695Z,94.60
2022-12-17T05:03:17.892Z,93.68
2022-12-17T05:08:54.048Z,93.46
2022-12-17T05:11:38.869Z,92.91
2022-12-17T05:14:27.935Z,93.36
2022-12-17T05:17:12.791Z,93.28
2022-12-17T05:19:57.971Z,92.38
2022-12-17T05:22:42.856Z,91.83
2022-12-17T05:25:28.326Z,91.81
2022-12-17T05:28:13.124Z,91.74
2022-12-17T05:30:58.490Z,91.95
2022-12-17T05:33:43.748Z,93.04
2022-12-17T05:39:18.893Z,92.27
2022-12-17T05:42:04.054Z,92.80
2022-12-17T05:44:49.207Z,92.32
2022-12-17T05:47:34.127Z,92.35
2022-12-17T05:50:19.059Z,92.95
2022-12-17T05:53:04.090Z,92.97
2022-12-17T05:55:52.971Z,92.96
2022-12-17T05:58:37.820Z,92.53
2022-12-17T06:01:27.108Z,93.04
2022-12-17T06:04:12.430Z,93.84
2022-12-17T06:18:54.811Z,90.60
2022-12-17T06:21:39.795Z,91.46
2022-12-17T06:24:25.058Z,92.28
2022-12-17T06:27:10.082Z,92.09
2022-12-17T06:29:55.259Z,91.54
2022-12-17T06:32:41.624Z,91.63
2022-12-17T06:41:06.615Z,90.62
2022-12-17T06:43:51.577Z,91.18
2022-12-17T06:46:53.348Z,91.95
2022-12-17T06:49:38.311Z,91.45
2022-12-17T06:52:23.257Z,91.57
2022-12-17T06:55:07.954Z,91.96
2022-12-17T07:00:43.954Z,90.54
2022-12-17T07:03:29.229Z,90.40
2022-12-17T07:06:14.910Z,90.24
2022-12-17T07:08:59.766Z,90.74
2022-12-17T07:11:44.714Z,90.30
2022-12-17T07:14:29.896Z,89.69
2022-12-17T07:20:04.852Z,90.09
2022-12-17T07:22:49.802Z,90.10
2022-12-17T07:28:28.879Z,90.29
2022-12-17T07:31:13.862Z,90.10
2022-12-17T07:33:58.937Z,91.00
2022-12-17T07:36:43.859Z,91.44
2022-12-17T07:42:19.735Z,91.34
2022-12-17T07:45:04.738Z,92.22
2022-12-17T07:48:00.426Z,90.73
2022-12-17T07:50:45.749Z,90.30
2022-12-17T07:53:30.548Z,90.77
2022-12-17T07:56:18.857Z,91.07
2022-12-17T07:59:03.785Z,90.92
2022-12-17T08:04:51.075Z,90.84
2022-12-17T08:07:35.963Z,90.75
2022-12-17T08:10:25.178Z,89.81
2022-12-17T08:13:14.036Z,88.96
2022-12-17T08:18:52.877Z,91.23
2022-12-17T08:21:37.794Z,90.82
2022-12-17T08:24:26.075Z,90.47
2022-12-17T08:27:11.087Z,91.22
2022-12-17T08:32:46.767Z,91.11
2022-12-17T08:35:31.775Z,91.21
2022-12-17T08:38:16.916Z,91.04
2022-12-17T08:41:15.764Z,90.59
2022-12-17T08:44:00.698Z,90.72
2022-12-17T08:55:18.935Z,92.31
2022-12-17T08:58:03.819Z,92.66
2022-12-17T09:00:48.902Z,91.96
2022-12-17T09:03:33.854Z,92.37
2022-12-17T09:14:50.711Z,94.36
2022-12-17T09:17:35.590Z,94.83
2022-12-17T09:20:24.855Z,95.62
2022-12-17T09:23:12.762Z,97.10
2022-12-17T09:25:58.361Z,96.97
2022-12-17T09:28:43.607Z,96.54
2022-12-17T09:34:18.729Z,96.31
2022-12-17T09:37:03.623Z,96.21
2022-12-17T09:39:48.551Z,96.73
2022-12-17T09:42:33.453Z,95.82
2022-12-17T09:48:09.885Z,96.25
2022-12-17T09:50:55.017Z,95.33
2022-12-17T09:53:41.798Z,94.29
2022-12-17T09:56:26.543Z,95.41
2022-12-17T10:02:01.756Z,96.83
2022-12-17T10:04:47.243Z,97.10
2022-12-17T10:07:32.124Z,96.42
2022-12-17T10:13:07.703Z,96.00
2022-12-17T10:18:43.709Z,95.56
2022-12-17T10:21:28.717Z,96.43
2022-12-17T10:24:18.589Z,97.51
2022-12-17T10:27:04.079Z,97.97
2022-12-17T10:29:49.479Z,98.25
2022-12-17T10:32:34.817Z,97.95
2022-12-17T10:35:20.055Z,98.53
2022-12-17T10:38:05.015Z,98.45
2022-12-17T10:46:35.349Z,97.74
2022-12-17T10:49:20.466Z,97.43
2022-12-17T10:52:05.455Z,98.50
2022-12-17T10:54:50.479Z,98.32
2022-12-17T10:57:36.022Z,97.94
2022-12-17T11:00:20.925Z,97.10
2022-12-17T11:03:06.126Z,97.28
2022-12-17T11:05:53.820Z,97.57
2022-12-17T11:08:43.057Z,97.24
2022-12-17T11:11:27.995Z,96.95
2022-12-17T11:14:15.523Z,96.50
2022-12-17T11:17:00.738Z,95.86
2022-12-17T11:22:36.533Z,96.03
2022-12-17T11:25:27.706Z,96.18
2022-12-17T11:28:30.350Z,96.76
2022-12-17T11:36:55.490Z,96.10
2022-12-17T11:39:40.694Z,95.50
2022-12-17T11:42:25.923Z,96.31
2022-12-17T11:45:10.863Z,96.69
2022-12-17T11:50:46.596Z,93.98
2022-12-17T11:53:31.555Z,93.22
2022-12-17T11:56:16.518Z,93.19
2022-12-17T11:59:01.348Z,92.89
2022-12-17T12:04:36.839Z,93.03
2022-12-17T12:07:21.983Z,92.82
2022-12-17T12:10:07.090Z,92.87
2022-12-17T12:12:52.283Z,91.59
2022-12-17T12:15:40.731Z,93.57
2022-12-17T12:18:25.767Z,93.75
2022-12-17T12:21:10.769Z,92.58
2022-12-17T12:23:55.647Z,92.24
2022-12-17T12:26:40.530Z,92.27
2022-12-17T12:29:25.575Z,93.00
2022-12-17T12:35:00.460Z,90.77
2022-12-17T12:37:45.371Z,90.38
2022-12-17T12:40:30.252Z,90.18
2022-12-17T12:43:15.230Z,89.43
2022-12-17T12:46:00.354Z,89.17
2022-12-17T12:48:45.566Z,89.27
2022-12-17T12:51:33.986Z,89.75
2022-12-17T12:54:19.613Z,89.79
2022-12-17T12:57:04.577Z,90.29
2022-12-17T12:59:49.578Z,90.84
2022-12-17T13:02:34.617Z,90.57
2022-12-17T13:05:19.701Z,90.28
2022-12-17T13:07:48.004Z,92.09
2022-12-17T13:10:14.321Z,92.21
2022-12-17T13:12:40.671Z,92.83
2022-12-17T13:15:06.968Z,92.12
2022-12-17T13:17:33.297Z,91.93
2022-12-17T13:19:59.618Z,91.61
2022-12-17T13:22:25.928Z,91.71
2022-12-17T13:24:52.314Z,93.14
2022-12-17T13:27:18.785Z,92.92
2022-12-17T13:29:45.377Z,91.90
2022-12-17T13:32:11.774Z,92.42
2022-12-17T13:34:38.198Z,92.71
2022-12-17T13:37:04.522Z,92.94
2022-12-17T13:39:30.907Z,92.42
2022-12-17T13:41:57.323Z,92.11
2022-12-17T13:44:23.910Z,90.80
2022-12-17T13:46:50.212Z,90.58
2022-12-17T13:49:16.547Z,90.63
2022-12-17T13:51:42.868Z,90.65
2022-12-17T13:54:09.235Z,90.83
2022-12-17T13:56:35.583Z,89.77
2022-12-17T13:59:08.473Z,89.92
2022-12-17T14:01:35.456Z,90.56
2022-12-17T14:04:06.779Z,90.20
2022-12-17T14:06:35.975Z,89.62
2022-12-17T14:09:02.507Z,89.78
2022-12-17T14:11:49.815Z,89.00
2022-12-17T14:14:16.415Z,88.15
2022-12-17T14:16:49.013Z,88.27
2022-12-17T14:19:17.047Z,88.90
2022-12-17T14:21:43.419Z,89.71
2022-12-17T14:24:09.774Z,90.34
2022-12-17T14:26:36.086Z,89.99
2022-12-17T14:29:05.651Z,89.97
2022-12-17T14:31:31.985Z,89.63
2022-12-17T14:33:58.490Z,88.97
2022-12-17T14:36:24.814Z,88.82
2022-12-17T14:38:51.381Z,88.38
2022-12-17T14:41:36.864Z,88.25
2022-12-17T14:44:03.200Z,88.19
2022-12-17T14:46:29.724Z,88.53
2022-12-17T14:49:02.300Z,87.98
2022-12-17T14:51:28.643Z,87.52
2022-12-17T14:53:54.956Z,88.60
2022-12-17T14:56:21.604Z,87.45
2022-12-17T14:58:47.913Z,87.88
2022-12-17T15:01:14.322Z,86.52
2022-12-17T15:03:40.787Z,86.93
2022-12-17T15:06:07.208Z,88.25
2022-12-17T15:11:04.667Z,88.50
2022-12-17T15:13:30.994Z,87.77
2022-12-17T15:15:57.391Z,87.53
2022-12-17T15:18:23.893Z,87.08
2022-12-17T15:20:50.219Z,85.73
2022-12-17T15:23:16.990Z,86.21
2022-12-17T15:25:46.716Z,86.05
2022-12-17T15:28:13.417Z,85.65
2022-12-17T15:33:13.918Z,86.68
2022-12-17T15:35:40.242Z,87.25
2022-12-17T15:38:06.563Z,87.24
2022-12-17T15:40:33.099Z,87.32
2022-12-17T15:43:11.853Z,87.51
2022-12-17T15:48:09.643Z,86.06
2022-12-17T15:50:37.631Z,85.74
2022-12-17T15:53:03.961Z,86.28
2022-12-17T15:55:30.301Z,85.83
2022-12-17T16:00:28.686Z,86.19
2022-12-17T16:02:55.168Z,83.05
2022-12-17T16:07:53.699Z,83.35
2022-12-17T16:10:20.110Z,84.16
2022-12-17T16:15:19.685Z,82.64
2022-12-17T16:17:46.011Z,81.17
2022-12-17T16:20:12.330Z,82.94
2022-12-17T16:22:38.646Z,82.05
2022-12-17T16:25:05.352Z,81.89
2022-12-17T16:27:33.791Z,80.52
2022-12-17T16:30:00.222Z,79.83
2022-12-17T16:32:29.233Z,81.04
2022-12-17T16:35:01.668Z,82.40
2022-12-17T16:37:27.991Z,83.85
2022-12-17T16:39:59.682Z,83.75
2022-12-17T16:42:26.597Z,84.00
2022-12-17T16:44:52.915Z,84.36
2022-12-17T16:47:19.231Z,84.48
2022-12-17T16:49:45.551Z,83.60
2022-12-17T16:52:12.276Z,83.79
2022-12-17T16:54:38.594Z,83.63
2022-12-17T16:57:04.919Z,84.52
2022-12-17T16:59:31.244Z,85.37
2022-12-17T17:01:57.739Z,84.61
2022-12-17T17:04:25.717Z,83.50
2022-12-17T17:06:52.112Z,83.28
2022-12-17T17:09:18.710Z,82.39
2022-12-17T17:11:49.621Z,82.34
2022-12-17T17:14:17.994Z,83.90
2022-12-17T17:16:44.748Z,82.23
2022-12-17T17:19:11.081Z,82.37
2022-12-17T17:21:38.736Z,82.12
2022-12-17T17:24:05.163Z,82.83
2022-12-17T17:26:31.944Z,82.49
2022-12-17T17:28:58.358Z,83.12
2022-12-17T17:31:46.438Z,83.32
2022-12-17T17:34:11.276Z,83.85
2022-12-17T17:36:37.615Z,83.73
2022-12-17T17:39:04.071Z,83.66
2022-12-17T17:41:30.430Z,83.05
2022-12-17T17:43:56.885Z,82.97
2022-12-17T17:46:23.646Z,83.91
2022-12-17T17:48:53.970Z,84.97
2022-12-17T17:51:38.874Z,86.15
2022-12-17T17:54:14.080Z,86.46
2022-12-17T17:56:40.741Z,85.54
2022-12-17T17:59:07.070Z,85.27
2022-12-17T18:01:33.528Z,86.17
2022-12-17T18:03:59.967Z,86.62
2022-12-17T18:06:29.589Z,86.11
2022-12-17T18:08:55.980Z,85.42
2022-12-17T18:11:23.509Z,85.89
2022-12-17T18:13:56.190Z,86.57
2022-12-17T18:16:22.619Z,85.44
2022-12-17T18:18:49.071Z,84.88
2022-12-17T18:21:15.389Z,84.62
2022-12-17T18:23:41.720Z,84.48
2022-12-17T18:26:08.036Z,84.25
2022-12-17T18:28:37.859Z,84.78
2022-12-17T18:31:04.531Z,84.36
2022-12-17T18:33:34.593Z,84.06
2022-12-17T18:36:00.926Z,83.46
2022-12-17T18:38:27.248Z,84.32
2022-12-17T18:40:53.571Z,84.88
2022-12-17T18:43:26.043Z,84.79
2022-12-17T18:45:52.372Z,84.93
2022-12-17T18:48:19.391Z,85.47
2022-12-17T18:50:45.720Z,85.25
2022-12-17T18:53:12.312Z,85.62
2022-12-17T18:55:41.873Z,85.46
2022-12-17T18:58:08.254Z,84.86
2022-12-17T19:00:34.588Z,85.66
2022-12-17T19:03:01.144Z,85.71
2022-12-17T19:05:27.552Z,86.52
2022-12-17T19:07:53.922Z,86.56
2022-12-17T19:10:20.242Z,87.23
2022-12-17T19:15:18.954Z,88.29
2022-12-17T19:17:45.289Z,87.76
2022-12-17T19:20:11.618Z,88.82
2022-12-17T19:22:37.936Z,88.83
2022-12-17T19:25:04.273Z,88.42
2022-12-17T19:27:30.611Z,87.72
2022-12-17T19:29:58.580Z,87.90
2022-12-17T19:32:25.027Z,88.47
2022-12-17T19:34:51.347Z,88.47
2022-12-17T19:37:17.746Z,88.58
2022-12-17T19:39:44.126Z,88.33
2022-12-17T19:42:24.917Z,88.55
2022-12-17T19:44:51.732Z,89.30
2022-12-17T19:47:18.128Z,88.78
2022-12-17T19:49:44.445Z,89.05
2022-12-17T19:52:10.759Z,89.64
2022-12-17T19:54:37.088Z,88.97
2022-12-17T19:59:34.638Z,89.74
2022-12-17T20:02:03.822Z,89.45
2022-12-17T20:04:30.873Z,89.32
2022-12-17T20:06:57.286Z,88.88
2022-12-17T20:09:23.610Z,88.39
2022-12-17T20:11:49.931Z,87.92
2022-12-17T20:14:16.284Z,88.33
2022-12-17T20:16:42.673Z,89.97
2022-12-17T20:19:09.102Z,89.42
2022-12-17T20:21:35.414Z,89.61
2022-12-17T20:24:01.773Z,89.42
2022-12-17T20:26:29.556Z,87.78
2022-12-17T20:28:55.981Z,89.23
2022-12-17T20:31:22.362Z,89.90
2022-12-17T20:33:48.755Z,88.49
2022-12-17T20:36:15.156Z,89.10
2022-12-17T20:38:41.936Z,88.10
2022-12-17T20:41:08.616Z,87.50
2022-12-17T20:43:35.125Z,89.13
2022-12-17T20:46:01.555Z,89.83
2022-12-17T20:48:27.941Z,89.89
2022-12-17T20:50:54.593Z,91.03
2022-12-17T20:53:21.085Z,91.15
2022-12-17T20:55:47.404Z,91.13
2022-12-17T20:58:13.715Z,90.51
2022-12-17T21:00:40.449Z,88.63
2022-12-17T21:03:07.023Z,89.90
2022-12-17T21:05:33.464Z,91.10
2022-12-17T21:07:59.765Z,91.00
2022-12-17T21:10:26.141Z,91.43
2022-12-17T21:13:11.293Z,91.85
2022-12-17T21:15:37.727Z,92.32
2022-12-17T21:18:04.055Z,91.75
2022-12-17T21:20:30.536Z,90.68
2022-12-17T21:22:57.284Z,90.65
2022-12-17T21:25:23.726Z,89.74
2022-12-17T21:27:50.086Z,89.84
2022-12-17T21:30:16.547Z,90.46
2022-12-17T21:32:42.866Z,89.32
2022-12-17T21:35:10.298Z,89.38
2022-12-17T21:37:36.773Z,89.87
2022-12-17T21:40:03.205Z,89.75
2022-12-17T21:42:48.334Z,89.58
2022-12-17T21:45:14.720Z,90.43
2022-12-17T21:47:41.292Z,90.43
2022-12-17T21:50:07.637Z,90.25
2022-12-17T21:52:33.979Z,89.97
2022-12-17T21:55:00.315Z,90.50
2022-12-17T21:57:26.843Z,90.04
2022-12-17T21:59:53.158Z,90.05
2022-12-17T22:02:20.476Z,89.95
2022-12-17T22:04:47.001Z,88.48
2022-12-17T22:07:26.268Z,87.41
2022-12-17T22:10:20.366Z,87.70
2022-12-17T22:13:01.324Z,88.90
2022-12-17T22:15:34.461Z,88.20
2022-12-17T22:18:10.182Z,89.01
2022-12-17T22:20:36.518Z,88.72
2022-12-17T22:23:05.453Z,88.98
2022-12-17T22:25:31.939Z,87.15
2022-12-17T22:27:58.264Z,88.03
2022-12-17T22:30:57.168Z,87.95
2022-12-17T22:33:51.743Z,87.85
2022-12-17T22:38:58.342Z,87.37
2022-12-17T22:43:46.242Z,87.79
2022-12-17T22:44:33.847Z,87.52
2022-12-17T22:44:54.510Z,88.54
2022-12-17T22:47:21.565Z,90.55
2022-12-17T22:49:47.891Z,91.12
2022-12-17T22:52:14.515Z,89.86
2022-12-17T22:54:43.651Z,88.92
2022-12-17T22:57:34.804Z,87.71
2022-12-17T22:59:56.568Z,87.49
2022-12-17T23:02:23.554Z,86.83
2022-12-17T23:04:50.007Z,88.13
2022-12-17T23:07:16.475Z,88.59
2022-12-17T23:09:42.799Z,89.26
2022-12-17T23:12:28.053Z,89.52
2022-12-17T23:14:54.418Z,90.86
2022-12-17T23:17:20.762Z,91.67
2022-12-17T23:19:47.085Z,90.60
2022-12-17T23:22:22.137Z,88.58
2022-12-17T23:24:48.740Z,89.23
2022-12-17T23:27:15.076Z,89.45
2022-12-17T23:29:41.401Z,88.55
2022-12-17T23:32:07.775Z,89.60
2022-12-17T23:34:34.094Z,90.34
2022-12-17T23:37:00.450Z,90.03
2022-12-17T23:39:27.058Z,89.49
2022-12-17T23:41:53.582Z,89.20
2022-12-17T23:44:19.907Z,89.60
2022-12-17T23:46:46.286Z,89.15
2022-12-17T23:49:12.683Z,88.16
2022-12-17T23:51:39.031Z,87.52
2022-12-17T23:54:05.411Z,87.01
2022-12-17T23:56:31.781Z,85.77
2022-12-17T23:58:58.294Z,86.16
